Time;durP1;ratioP1;P1;durP2;ratioP2;P2;SDS_P1;SDS_P2;PMS_P1;PMS_P2;Temp;Humidity;BMP_temperature;BMP_pressure;BME280_temperature;BME280_humidity;BME280_pressure;Samples;Min_cycle;Max_cycle;Signal;HPM_P1;HPM_P2
2021/07/27 00:01:14;;;;;;;4.67;3.60;;;19.70;85.20;;;;;;5036171;28;20587;-77
2021/07/27 00:03:41;;;;;;;7.00;3.77;;;19.70;85.40;;;;;;5053933;28;20246;-76
2021/07/27 00:06:08;;;;;;;4.50;3.80;;;19.60;85.60;;;;;;5054266;28;20505;-76
2021/07/27 00:08:37;;;;;;;4.67;3.00;;;19.60;85.70;;;;;;5053828;28;20443;-76
2021/07/27 00:11:08;;;;;;;5.17;3.60;;;19.60;85.90;;;;;;5056607;28;20421;-76
2021/07/27 00:13:34;;;;;;;6.50;3.57;;;19.50;86.00;;;;;;5020350;28;20518;-76
2021/07/27 00:16:00;;;;;;;4.10;3.10;;;19.50;87.00;;;;;;5056193;28;21122;-76
2021/07/27 00:18:26;;;;;;;5.00;3.10;;;19.50;86.30;;;;;;5053707;28;20411;-76
2021/07/27 00:20:52;;;;;;;4.57;3.27;;;19.50;86.20;;;;;;5019032;28;20434;-76
2021/07/27 00:23:17;;;;;;;3.40;3.03;;;19.50;86.50;;;;;;5019336;28;20214;-77
2021/07/27 00:25:44;;;;;;;6.10;4.43;;;19.50;86.50;;;;;;5053717;28;20173;-76
2021/07/27 00:28:13;;;;;;;12.60;3.83;;;19.40;86.50;;;;;;5054947;28;20582;-76
2021/07/27 00:30:39;;;;;;;6.20;3.37;;;19.40;86.60;;;;;;5036130;28;20958;-76
2021/07/27 00:33:04;;;;;;;4.27;3.23;;;19.40;86.50;;;;;;5053008;28;20415;-76
2021/07/27 00:35:31;;;;;;;3.83;2.90;;;19.40;86.80;;;;;;5053558;28;20197;-77
2021/07/27 00:38:09;;;;;;;5.47;3.63;;;19.30;87.20;;;;;;5055104;28;20182;-77
2021/07/27 00:40:41;;;;;;;6.37;3.73;;;19.30;86.90;;;;;;5054620;28;20836;-76
2021/07/27 00:43:11;;;;;;;5.33;3.33;;;19.30;87.40;;;;;;5035191;28;20418;-76
2021/07/27 00:45:37;;;;;;;5.77;3.27;;;19.20;87.40;;;;;;5053658;28;20407;-77
2021/07/27 00:48:03;;;;;;;5.73;3.77;;;19.20;87.40;;;;;;5053117;28;20422;-76
2021/07/27 00:50:29;;;;;;;6.90;3.70;;;19.20;87.80;;;;;;5035495;28;20439;-76
2021/07/27 00:53:03;;;;;;;5.50;3.60;;;19.20;87.90;;;;;;5035060;28;20781;-76
2021/07/27 00:55:30;;;;;;;5.20;3.07;;;19.20;87.80;;;;;;5052987;28;21035;-76
2021/07/27 00:57:56;;;;;;;4.70;3.50;;;19.20;88.00;;;;;;5052679;28;20407;-76
2021/07/27 01:00:24;;;;;;;4.73;3.60;;;19.20;88.00;;;;;;5052662;28;20798;-76
2021/07/27 01:02:50;;;;;;;5.30;3.23;;;19.20;87.90;;;;;;5034817;28;20414;-76
2021/07/27 01:05:17;;;;;;;5.27;3.60;;;19.20;87.90;;;;;;5035200;28;20413;-76
2021/07/27 01:07:43;;;;;;;5.53;3.73;;;19.20;87.90;;;;;;5018375;28;20503;-76
2021/07/27 01:10:12;;;;;;;9.67;3.67;;;19.20;88.10;;;;;;5034612;28;20540;-76
2021/07/27 01:12:38;;;;;;;5.23;3.00;;;19.20;88.00;;;;;;5018120;28;20428;-76
2021/07/27 01:15:05;;;;;;;3.47;2.93;;;19.20;88.00;;;;;;5017764;28;20421;-77
2021/07/27 01:17:31;;;;;;;3.90;3.07;;;19.10;88.00;;;;;;5034824;28;20415;-77
2021/07/27 01:43:53;;;;;;;5.73;4.00;;;18.90;89.20;;;;;;5051377;28;20418;-77
2021/07/27 01:46:23;;;;;;;6.30;4.47;;;18.90;89.10;;;;;;5051470;28;20645;-76
2021/07/27 01:48:50;;;;;;;5.37;4.03;;;18.80;89.00;;;;;;5051329;28;20516;-76
2021/07/27 01:51:17;;;;;;;9.20;4.30;;;18.80;89.30;;;;;;5051420;28;20950;-76
2021/07/27 01:53:47;;;;;;;8.67;5.50;;;18.80;89.70;;;;;;5050963;28;20451;-76
2021/07/27 01:56:16;;;;;;;6.20;4.40;;;18.80;89.60;;;;;;5051448;28;20825;-76
2021/07/27 01:58:43;;;;;;;5.53;4.53;;;18.80;89.40;;;;;;5051407;28;20440;-76
2021/07/27 02:01:09;;;;;;;13.30;5.80;;;18.80;89.30;;;;;;5033698;28;20449;-77
2021/07/27 02:03:35;;;;;;;13.17;4.27;;;18.80;89.60;;;;;;5033581;28;20436;-76
2021/07/27 02:06:00;;;;;;;7.70;4.87;;;18.80;89.50;;;;;;5016807;28;20941;-76
2021/07/27 02:08:26;;;;;;;7.20;4.50;;;18.80;89.70;;;;;;5033368;28;20179;-76
2021/07/27 02:11:34;;;;;;;6.37;5.07;;;18.80;89.50;;;;;;5048762;22;20218;-87
2021/07/27 02:14:03;;;;;;;11.60;5.10;;;18.80;89.60;;;;;;5027606;28;20187;-87
2021/07/27 02:16:37;;;;;;;5.37;4.10;;;18.80;89.50;;;;;;5003416;28;20462;-87
2021/07/27 02:19:08;;;;;;;5.67;4.83;;;18.80;89.70;;;;;;5002092;28;20465;-87
2021/07/27 02:21:35;;;;;;;5.40;3.57;;;18.70;89.60;;;;;;5001597;28;20416;-89
2021/07/27 02:24:02;;;;;;;9.10;4.70;;;18.70;89.80;;;;;;5001117;23;20907;-76
2021/07/27 02:26:29;;;;;;;7.90;5.00;;;18.70;90.10;;;;;;5011411;28;20410;-76
2021/07/27 02:28:54;;;;;;;8.43;4.00;;;18.70;89.80;;;;;;5011299;28;20414;-76
2021/07/27 02:31:42;;;;;;;4.93;3.93;;;18.80;89.90;;;;;;5011286;28;20398;-76
2021/07/27 02:34:06;;;;;;;7.90;4.70;;;18.80;89.60;;;;;;5009382;28;20682;-76
2021/07/27 02:36:32;;;;;;;6.53;5.03;;;18.90;89.60;;;;;;4993709;28;20452;-76
2021/07/27 02:39:00;;;;;;;7.00;5.10;;;18.90;89.20;;;;;;4993678;28;20212;-75
2021/07/27 02:41:26;;;;;;;8.93;7.43;;;19.00;88.90;;;;;;4977510;28;20599;-76
2021/07/27 02:43:52;;;;;;;11.50;6.50;;;19.00;88.70;;;;;;5010459;28;20460;-76
2021/07/27 02:46:19;;;;;;;5.87;4.03;;;19.00;88.50;;;;;;4993441;28;20167;-76
2021/07/27 02:48:59;;;;;;;5.90;3.77;;;19.00;88.60;;;;;;4977580;28;20672;-76
2021/07/27 02:51:25;;;;;;;6.00;4.40;;;18.90;88.70;;;;;;4993420;28;20421;-76
2021/07/27 02:53:51;;;;;;;6.03;4.47;;;18.90;89.00;;;;;;4976936;28;20856;-76
2021/07/27 02:56:19;;;;;;;6.07;4.10;;;18.90;89.50;;;;;;4992891;28;20191;-76
2021/07/27 02:58:45;;;;;;;7.23;4.63;;;18.90;89.70;;;;;;4993499;28;20764;-76
2021/07/27 03:01:10;;;;;;;9.20;4.40;;;18.90;90.00;;;;;;5010870;28;20521;-76
2021/07/27 03:03:36;;;;;;;7.43;4.43;;;18.90;90.00;;;;;;4993118;28;20263;-76
2021/07/27 03:06:02;;;;;;;7.40;3.40;;;18.90;90.10;;;;;;4993465;28;20177;-76
2021/07/27 03:08:47;;;;;;;5.47;3.40;;;18.90;90.10;;;;;;5010926;28;20616;-76
2021/07/27 03:11:13;;;;;;;6.33;4.50;;;18.80;89.90;;;;;;5007758;28;20450;-76
2021/07/27 03:13:40;;;;;;;5.27;4.23;;;18.80;90.10;;;;;;4992571;28;20516;-76
2021/07/27 03:16:06;;;;;;;8.67;4.07;;;18.80;90.10;;;;;;4993352;28;20451;-76
2021/07/27 03:18:31;;;;;;;6.23;3.80;;;18.80;90.10;;;;;;4993496;28;20473;-76
2021/07/27 03:20:57;;;;;;;5.53;4.30;;;18.80;90.20;;;;;;5010585;28;20188;-76
2021/07/27 03:23:28;;;;;;;6.67;4.23;;;18.80;90.10;;;;;;5010500;28;20171;-76
2021/07/27 03:25:54;;;;;;;5.47;4.10;;;18.70;90.00;;;;;;4993174;28;20225;-77
2021/07/27 03:28:20;;;;;;;6.03;4.53;;;18.70;90.30;;;;;;5010789;28;20415;-76
2021/07/27 03:30:46;;;;;;;6.00;4.03;;;18.70;89.90;;;;;;5009369;28;20184;-76
2021/07/27 03:33:14;;;;;;;7.30;4.53;;;18.60;89.90;;;;;;5008991;28;20190;-76
2021/07/27 03:35:41;;;;;;;6.87;4.17;;;18.60;89.80;;;;;;5010964;28;20457;-76
2021/07/27 03:38:07;;;;;;;6.67;4.50;;;18.60;89.30;;;;;;5010747;28;20772;-76
2021/07/27 03:40:36;;;;;;;6.50;5.00;;;18.60;89.20;;;;;;5010707;28;20430;-76
2021/07/27 03:43:02;;;;;;;8.80;5.40;;;18.60;89.00;;;;;;5008882;28;20217;-76
2021/07/27 03:45:28;;;;;;;8.63;5.00;;;18.60;89.10;;;;;;4993371;28;20891;-76
2021/07/27 03:47:53;;;;;;;5.20;3.70;;;18.60;89.10;;;;;;5009320;28;20485;-76
2021/07/27 03:50:19;;;;;;;6.67;4.83;;;18.60;88.80;;;;;;5010746;28;20672;-76
2021/07/27 03:52:45;;;;;;;7.50;4.70;;;18.50;88.90;;;;;;5010215;28;20204;-76
2021/07/27 03:55:11;;;;;;;5.27;3.77;;;18.50;89.00;;;;;;4996775;28;20171;-76
2021/07/27 03:57:37;;;;;;;7.00;4.97;;;18.50;89.20;;;;;;4996679;28;20415;-77
2021/07/27 04:00:04;;;;;;;6.47;4.03;;;18.50;88.90;;;;;;5014150;28;20981;-76
2021/07/27 04:02:30;;;;;;;5.90;3.57;;;18.50;89.20;;;;;;5013533;28;20165;-76
2021/07/27 04:04:56;;;;;;;7.17;4.63;;;18.50;89.20;;;;;;5014113;28;20502;-77
2021/07/27 04:07:22;;;;;;;8.33;5.20;;;18.40;88.90;;;;;;5012653;28;20230;-76
2021/07/27 04:09:48;;;;;;;6.53;4.63;;;18.40;89.00;;;;;;5012533;28;20747;-77
2021/07/27 04:12:13;;;;;;;7.67;4.40;;;18.40;89.10;;;;;;5012634;28;20164;-75
2021/07/27 04:14:39;;;;;;;5.77;4.17;;;18.50;89.10;;;;;;5014823;28;20199;-76
2021/07/27 04:17:05;;;;;;;6.03;4.30;;;18.50;88.90;;;;;;4996274;28;20211;-76
2021/07/27 04:19:30;;;;;;;6.63;4.53;;;18.50;88.30;;;;;;5015652;28;20707;-76
2021/07/27 04:21:56;;;;;;;5.17;3.93;;;18.50;88.30;;;;;;5015194;28;20202;-76
2021/07/27 04:24:22;;;;;;;6.63;4.93;;;18.60;88.00;;;;;;5033190;28;20194;-76
2021/07/27 04:26:48;;;;;;;5.30;4.77;;;18.60;88.10;;;;;;4999697;28;20178;-76
2021/07/27 04:29:16;;;;;;;6.30;4.20;;;18.60;87.70;;;;;;5033382;28;20705;-77
2021/07/27 04:31:41;;;;;;;6.60;4.30;;;18.70;87.50;;;;;;5033400;28;20747;-76
2021/07/27 04:34:07;;;;;;;5.43;4.23;;;18.80;87.00;;;;;;4997405;28;20423;-76
2021/07/27 04:36:33;;;;;;;5.57;4.40;;;18.80;86.60;;;;;;5003736;28;20281;-75
2021/07/27 04:39:01;;;;;;;6.53;4.43;;;18.90;86.00;;;;;;5028328;28;20158;-76
2021/07/27 04:41:27;;;;;;;5.00;3.63;;;19.00;85.40;;;;;;5022304;28;20252;-76
2021/07/27 04:43:53;;;;;;;4.60;3.80;;;19.00;85.10;;;;;;5014802;28;20444;-76
2021/07/27 04:46:18;;;;;;;4.43;3.83;;;19.10;84.60;;;;;;5033758;28;20777;-76
2021/07/27 04:48:44;;;;;;;8.20;4.07;;;19.10;83.90;;;;;;5015411;28;20254;-77
2021/07/27 04:51:10;;;;;;;4.57;3.50;;;19.20;84.10;;;;;;4999211;28;20267;-76
2021/07/27 04:53:37;;;;;;;4.20;3.60;;;19.30;84.00;;;;;;5015886;28;20159;-76
2021/07/27 04:56:04;;;;;;;3.40;3.07;;;19.40;84.00;;;;;;5033409;28;20190;-77
2021/07/27 04:58:29;;;;;;;4.57;3.90;;;19.40;83.70;;;;;;5015462;28;20820;-76
2021/07/27 05:01:02;;;;;;;5.03;3.30;;;19.40;83.80;;;;;;5014974;28;20423;-76
2021/07/27 05:03:29;;;;;;;9.53;4.47;;;19.40;83.90;;;;;;5014765;28;20161;-76
2021/07/27 05:05:54;;;;;;;7.87;3.37;;;19.50;83.90;;;;;;5032269;28;20473;-76
2021/07/27 05:08:20;;;;;;;4.70;3.23;;;19.50;83.80;;;;;;5015365;28;20416;-77
2021/07/27 05:10:46;;;;;;;7.80;3.60;;;19.40;83.80;;;;;;5015076;28;20200;-76
2021/07/27 05:13:12;;;;;;;6.03;4.00;;;19.40;84.10;;;;;;5032279;28;20174;-77
2021/07/27 05:15:37;;;;;;;5.43;2.93;;;19.40;84.10;;;;;;5033125;28;20337;-77
2021/07/27 05:18:03;;;;;;;7.70;3.90;;;19.50;83.90;;;;;;5015102;28;20205;-76
2021/07/27 05:20:29;;;;;;;6.90;3.70;;;19.40;83.20;;;;;;5032415;28;20618;-77
2021/07/27 05:22:56;;;;;;;6.23;3.90;;;19.50;83.10;;;;;;5031724;28;20202;-75
2021/07/27 05:25:22;;;;;;;6.23;3.70;;;19.50;82.70;;;;;;5015557;28;20244;-76
2021/07/27 05:27:47;;;;;;;6.80;4.43;;;19.50;82.10;;;;;;5034520;28;20412;-75
2021/07/27 05:30:15;;;;;;;5.30;3.77;;;19.50;82.10;;;;;;5014180;28;20968;-76
2021/07/27 05:32:41;;;;;;;7.60;5.33;;;19.50;81.90;;;;;;5012682;28;20571;-77
2021/07/27 05:35:09;;;;;;;6.53;4.40;;;19.50;81.60;;;;;;4998777;28;20422;-76
2021/07/27 05:37:35;;;;;;;8.07;4.80;;;19.50;81.40;;;;;;5015607;28;20809;-77
2021/07/27 05:40:00;;;;;;;9.07;4.50;;;19.60;81.20;;;;;;5020850;28;20477;-76
2021/07/27 05:42:26;;;;;;;6.40;5.20;;;19.60;80.70;;;;;;5035193;28;20414;-76
2021/07/27 05:44:52;;;;;;;9.27;5.40;;;19.60;81.10;;;;;;5014177;28;20164;-76
2021/07/27 05:47:18;;;;;;;7.90;4.93;;;19.60;80.70;;;;;;5014087;28;20173;-76
2021/07/27 05:49:44;;;;;;;7.13;4.10;;;19.60;80.90;;;;;;5031615;28;20526;-77
2021/07/27 05:52:12;;;;;;;10.17;5.20;;;19.70;81.10;;;;;;5031492;28;20181;-76
2021/07/27 05:54:39;;;;;;;9.00;5.60;;;19.80;80.80;;;;;;5031951;28;20169;-76
2021/07/27 05:57:12;;;;;;;7.80;5.37;;;20.00;80.10;;;;;;5014435;28;20464;-76
2021/07/27 05:59:40;;;;;;;7.70;5.30;;;20.50;79.80;;;;;;5014079;28;20843;-76
2021/07/27 06:02:06;;;;;;;5.07;4.57;;;21.10;76.20;;;;;;5031402;28;20740;-76
2021/07/27 06:04:31;;;;;;;6.50;4.63;;;21.30;73.90;;;;;;5033989;28;20431;-75
2021/07/27 06:06:57;;;;;;;10.70;5.50;;;21.20;72.80;;;;;;5000599;28;20439;-77
2021/07/27 06:09:23;;;;;;;7.60;5.53;;;21.00;71.90;;;;;;4999562;28;20201;-77
2021/07/27 06:11:49;;;;;;;8.20;5.90;;;20.80;73.30;;;;;;5016476;28;20280;-77
2021/07/27 06:14:14;;;;;;;6.40;5.37;;;20.60;73.50;;;;;;5033707;28;20176;-77
2021/07/27 06:16:40;;;;;;;5.90;4.83;;;20.50;74.60;;;;;;5032929;28;20288;-77
2021/07/27 06:19:07;;;;;;;9.73;4.70;;;20.70;75.60;;;;;;4999739;28;20173;-77
2021/07/27 06:21:36;;;;;;;7.30;5.70;;;21.40;72.50;;;;;;5034965;28;20162;-77
2021/07/27 06:24:02;;;;;;;6.57;5.10;;;22.30;71.10;;;;;;5034224;28;20425;-77
2021/07/27 06:26:28;;;;;;;7.00;4.63;;;23.00;67.20;;;;;;5014804;28;20466;-77
2021/07/27 06:28:53;;;;;;;8.67;4.97;;;23.50;64.70;;;;;;5016455;28;20421;-77
2021/07/27 06:31:19;;;;;;;8.83;5.40;;;23.80;61.70;;;;;;5000242;28;20188;-77
2021/07/27 06:33:45;;;;;;;6.93;4.80;;;23.70;61.50;;;;;;5033208;28;20177;-77
2021/07/27 06:36:12;;;;;;;6.10;4.63;;;23.50;61.00;;;;;;5014308;28;20198;-77
2021/07/27 06:38:39;;;;;;;7.10;5.07;;;23.00;62.40;;;;;;5031730;28;20891;-77
2021/07/27 06:41:06;;;;;;;5.90;4.63;;;22.70;63.90;;;;;;5031555;28;20437;-77
2021/07/27 06:43:33;;;;;;;6.60;4.93;;;22.50;65.00;;;;;;5014111;28;20452;-77
2021/07/27 06:45:59;;;;;;;6.90;5.53;;;22.20;65.60;;;;;;5014663;28;20417;-77
2021/07/27 06:48:25;;;;;;;8.43;5.17;;;22.10;67.10;;;;;;5014526;28;20423;-76
2021/07/27 06:50:53;;;;;;;7.60;5.70;;;22.00;65.70;;;;;;4997395;28;20256;-77
2021/07/27 06:53:20;;;;;;;9.90;5.10;;;21.90;66.50;;;;;;5031063;28;20627;-77
2021/07/27 06:55:46;;;;;;;8.80;5.93;;;21.80;67.00;;;;;;4997242;28;21174;-77
2021/07/27 06:58:12;;;;;;;6.70;4.87;;;21.80;67.10;;;;;;5013738;28;20413;-77
2021/07/27 07:00:39;;;;;;;11.53;5.13;;;21.70;67.40;;;;;;5031129;28;20425;-77
2021/07/27 07:03:08;;;;;;;6.60;3.73;;;21.70;67.80;;;;;;5031052;28;20420;-78
2021/07/27 07:05:35;;;;;;;7.70;5.80;;;21.50;68.90;;;;;;5015675;28;20441;-76
2021/07/27 07:08:02;;;;;;;8.70;5.40;;;21.40;69.90;;;;;;4998996;28;21047;-77
2021/07/27 07:10:28;;;;;;;8.53;6.20;;;21.30;70.00;;;;;;4999464;28;20575;-77
2021/07/27 07:12:54;;;;;;;9.60;6.33;;;21.30;70.90;;;;;;5015654;28;20919;-77
2021/07/27 07:15:20;;;;;;;9.30;5.57;;;21.50;70.40;;;;;;5013347;28;20194;-77
2021/07/27 07:17:46;;;;;;;8.87;5.90;;;21.50;69.60;;;;;;5013903;28;20644;-77
2021/07/27 07:20:12;;;;;;;8.63;5.70;;;21.50;69.60;;;;;;5013134;28;20445;-76
2021/07/27 07:22:38;;;;;;;9.80;7.30;;;21.40;69.30;;;;;;5030203;28;20189;-77
2021/07/27 07:25:04;;;;;;;7.43;5.90;;;21.40;69.90;;;;;;5031217;28;20802;-77
2021/07/27 07:27:30;;;;;;;8.93;6.07;;;21.50;70.20;;;;;;5031626;28;20509;-77
2021/07/27 07:29:59;;;;;;;7.27;5.43;;;21.60;69.60;;;;;;5017531;28;20435;-76
2021/07/27 07:32:25;;;;;;;8.90;5.60;;;21.70;68.80;;;;;;5015413;28;20180;-77
2021/07/27 07:34:51;;;;;;;8.43;6.07;;;21.90;68.40;;;;;;5037232;28;20413;-77
2021/07/27 07:37:17;;;;;;;15.03;10.00;;;22.00;67.70;;;;;;5019811;28;20499;-77
2021/07/27 07:39:48;;;;;;;9.07;6.60;;;22.40;68.10;;;;;;5020460;28;20281;-77
2021/07/27 07:42:14;;;;;;;7.10;4.07;;;23.40;66.50;;;;;;5001701;28;20448;-76
2021/07/27 07:44:40;;;;;;;8.53;5.77;;;24.20;61.70;;;;;;5019640;28;20190;-77
2021/07/27 07:47:06;;;;;;;8.67;5.20;;;24.50;59.00;;;;;;5037091;28;20335;-78
2021/07/27 07:49:32;;;;;;;6.90;5.40;;;24.50;59.50;;;;;;5018837;28;20520;-78
2021/07/27 07:51:58;;;;;;;9.20;5.40;;;24.70;58.20;;;;;;5018658;28;20171;-78
2021/07/27 07:54:24;;;;;;;5.80;4.73;;;24.90;58.80;;;;;;5037012;28;20170;-78
2021/07/27 07:56:50;;;;;;;7.73;5.93;;;25.40;58.30;;;;;;5037208;28;20451;-77
2021/07/27 07:59:16;;;;;;;8.87;6.10;;;26.00;56.50;;;;;;5053439;28;20405;-76
2021/07/27 08:01:45;;;;;;;7.00;5.87;;;26.70;54.40;;;;;;5036601;28;20489;-77
2021/07/27 08:04:14;;;;;;;8.07;6.73;;;27.40;53.50;;;;;;5022607;28;20438;-77
2021/07/27 08:06:40;;;;;;;5.90;5.40;;;28.30;50.80;;;;;;5035179;28;20428;-77
2021/07/27 08:09:06;;;;;;;10.80;5.70;;;29.00;49.60;;;;;;5018266;28;20413;-77
2021/07/27 08:11:32;;;;;;;13.10;6.20;;;29.30;48.00;;;;;;5019275;28;20412;-77
2021/07/27 08:13:58;;;;;;;7.60;5.70;;;29.30;47.30;;;;;;5035239;28;20166;-77
2021/07/27 08:16:25;;;;;;;8.67;6.77;;;29.40;48.60;;;;;;5017706;28;20712;-79
2021/07/27 08:18:51;;;;;;;7.70;5.90;;;29.80;47.50;;;;;;5005427;28;20840;-77
2021/07/27 08:21:20;;;;;;;7.73;5.90;;;30.20;46.90;;;;;;5013933;28;20428;-76
2021/07/27 08:23:48;;;;;;;7.13;6.23;;;30.60;45.30;;;;;;4995876;28;20440;-77
2021/07/27 08:26:14;;;;;;;7.73;7.00;;;30.80;44.70;;;;;;5013957;28;20900;-77
2021/07/27 08:28:40;;;;;;;9.43;6.27;;;30.90;44.30;;;;;;5014113;28;20417;-77
2021/07/27 08:31:06;;;;;;;6.80;6.07;;;30.80;44.50;;;;;;4995074;28;20499;-77
2021/07/27 08:33:31;;;;;;;6.23;5.73;;;30.80;44.50;;;;;;5011767;28;20829;-77
2021/07/27 08:35:57;;;;;;;7.10;6.40;;;30.70;44.60;;;;;;4996158;28;20217;-77
2021/07/27 08:38:23;;;;;;;9.43;6.80;;;30.90;44.40;;;;;;5013334;28;20259;-77
2021/07/27 08:40:50;;;;;;;8.90;6.20;;;31.40;43.30;;;;;;5007371;28;20329;-77
2021/07/27 08:43:19;;;;;;;6.47;5.57;;;31.50;43.20;;;;;;5016093;28;20398;-77
2021/07/27 08:45:45;;;;;;;7.93;5.83;;;31.30;43.60;;;;;;5015470;28;20408;-77
2021/07/27 08:48:13;;;;;;;11.10;6.53;;;31.40;43.20;;;;;;4998615;28;20422;-77
2021/07/27 08:50:41;;;;;;;8.50;5.90;;;31.30;43.40;;;;;;5030394;28;20433;-77
2021/07/27 08:53:07;;;;;;;8.23;6.60;;;30.80;43.60;;;;;;5034822;28;20416;-78
2021/07/27 08:55:33;;;;;;;6.30;5.60;;;30.10;45.30;;;;;;5016518;28;20818;-76
2021/07/27 08:57:59;;;;;;;6.23;5.63;;;29.70;46.30;;;;;;5033198;28;20525;-76
2021/07/27 09:00:27;;;;;;;7.07;6.13;;;29.90;46.50;;;;;;5033019;28;20727;-77
2021/07/27 09:02:53;;;;;;;6.30;5.70;;;30.80;45.20;;;;;;5016665;28;20413;-77
2021/07/27 09:05:19;;;;;;;6.30;5.70;;;32.00;43.10;;;;;;5017903;28;20496;-77
2021/07/27 09:07:46;;;;;;;7.40;6.27;;;33.00;41.30;;;;;;5035777;28;20985;-78
2021/07/27 09:10:13;;;;;;;7.30;6.17;;;33.90;39.00;;;;;;5035523;28;20496;-78
2021/07/27 09:12:50;;;;;;;6.97;5.93;;;34.70;38.70;;;;;;5017307;28;20401;-78
2021/07/27 09:15:16;;;;;;;8.33;7.03;;;34.90;38.70;;;;;;5036339;28;20905;-77
2021/07/27 09:18:14;;;;;;;;;;;;;;;;;;;;;
2021/07/27 09:20:57;;;;;;;7.60;6.90;;;34.00;38.00;;;;;;5016499;28;20436;-77
2021/07/27 09:23:28;;;;;;;7.90;7.10;;;32.30;40.00;;;;;;5020050;28;20436;-77
2021/07/27 09:25:55;;;;;;;7.60;6.50;;;30.70;42.90;;;;;;5022472;28;20437;-77
2021/07/27 09:28:22;;;;;;;7.77;7.03;;;29.70;44.90;;;;;;5037434;28;20491;-76
2021/07/27 09:30:48;;;;;;;6.60;5.87;;;28.70;47.00;;;;;;5036021;28;20425;-77
2021/07/27 09:33:16;;;;;;;7.70;6.20;;;28.00;48.80;;;;;;5001985;28;20444;-77
2021/07/27 09:35:43;;;;;;;7.73;6.23;;;27.30;49.90;;;;;;5018884;28;20822;-77
2021/07/27 09:38:13;;;;;;;8.00;6.40;;;26.60;51.70;;;;;;5034756;28;20539;-75
2021/07/27 09:41:00;;;;;;;7.17;6.23;;;26.20;53.70;;;;;;5041917;28;20428;-77
2021/07/27 09:43:28;;;;;;;8.50;6.20;;;26.20;54.50;;;;;;5033317;28;20405;-77
2021/07/27 09:45:56;;;;;;;6.73;5.80;;;26.30;53.70;;;;;;5016334;28;20430;-77
2021/07/27 09:48:23;;;;;;;6.43;5.73;;;26.10;54.10;;;;;;5034981;28;20413;-77
2021/07/27 09:50:53;;;;;;;9.03;6.17;;;26.20;54.10;;;;;;5033664;28;20515;-77
2021/07/27 09:53:19;;;;;;;8.57;5.60;;;26.70;53.80;;;;;;5016985;28;20440;-78
2021/07/27 09:55:45;;;;;;;8.23;5.80;;;27.10;52.50;;;;;;5018561;28;20479;-77
2021/07/27 09:58:12;;;;;;;8.00;6.80;;;27.10;52.20;;;;;;5017750;28;20968;-78
2021/07/27 10:00:49;;;;;;;7.57;6.60;;;26.80;52.70;;;;;;5034203;28;20182;-77
2021/07/27 10:03:23;;;;;;;8.00;6.07;;;26.30;53.70;;;;;;5015584;28;20401;-77
2021/07/27 10:05:54;;;;;;;9.43;6.23;;;25.90;54.70;;;;;;5014996;28;20994;-77
2021/07/27 10:08:33;;;;;;;13.00;6.87;;;25.80;55.90;;;;;;5033887;28;20416;-78
2021/07/27 10:11:09;;;;;;;6.23;5.63;;;25.90;55.50;;;;;;5034293;28;20440;-78
2021/07/27 10:13:38;;;;;;;6.50;5.30;;;25.90;55.10;;;;;;5035792;28;20930;-77
2021/07/27 10:16:04;;;;;;;9.37;7.00;;;25.90;55.20;;;;;;5035744;28;20448;-77
2021/07/27 10:18:32;;;;;;;8.67;5.60;;;25.70;55.90;;;;;;5036338;28;20413;-77
2021/07/27 10:21:23;;;;;;;7.30;6.17;;;25.60;55.60;;;;;;5014782;28;20500;-77
2021/07/27 10:23:53;;;;;;;7.83;5.80;;;25.60;55.90;;;;;;5014000;28;20425;-77
2021/07/27 10:26:29;;;;;;;9.43;5.90;;;25.50;55.80;;;;;;5033059;28;20821;-77
2021/07/27 10:28:56;;;;;;;8.30;6.50;;;25.30;56.30;;;;;;5035112;28;20503;-77
2021/07/27 10:31:35;;;;;;;8.67;6.23;;;25.10;56.60;;;;;;5033138;28;20413;-76
2021/07/27 10:34:03;;;;;;;11.00;9.27;;;25.00;57.60;;;;;;5013463;28;20412;-76
2021/07/27 10:36:34;;;;;;;7.90;6.23;;;24.90;58.30;;;;;;5015180;28;20449;-76
2021/07/27 10:39:08;;;;;;;6.40;5.80;;;25.00;58.00;;;;;;5035285;28;20409;-77
2021/07/27 10:41:39;;;;;;;7.73;6.27;;;24.90;57.90;;;;;;4999958;28;20467;-77
2021/07/27 10:44:12;;;;;;;7.10;5.63;;;24.80;57.90;;;;;;5017110;28;20413;-77
2021/07/27 10:46:46;;;;;;;7.27;6.50;;;24.60;58.40;;;;;;5035143;28;20406;-77
2021/07/27 10:49:24;;;;;;;8.13;5.77;;;24.40;58.60;;;;;;5033773;28;20563;-77
2021/07/27 10:51:52;;;;;;;6.53;5.87;;;24.40;59.30;;;;;;5032425;28;20417;-77
2021/07/27 10:54:30;;;;;;;6.70;6.00;;;24.60;59.60;;;;;;4998802;28;20798;-77
2021/07/27 10:57:06;;;;;;;7.83;5.80;;;25.40;58.20;;;;;;5016216;28;20455;-77
2021/07/27 10:59:35;;;;;;;7.63;5.90;;;26.20;54.00;;;;;;5015543;28;20597;-76
2021/07/27 11:02:09;;;;;;;6.27;5.30;;;26.90;51.20;;;;;;5031394;28;20420;-77
2021/07/27 11:04:35;;;;;;;8.93;5.67;;;27.20;49.60;;;;;;5018232;28;20420;-77
2021/07/27 11:07:33;;;;;;;7.53;5.17;;;27.40;49.00;;;;;;5036010;28;20409;-78
2021/07/27 11:09:59;;;;;;;7.40;4.83;;;27.60;47.70;;;;;;4992213;28;20206;-77
2021/07/27 11:12:35;;;;;;;6.70;5.07;;;27.60;46.40;;;;;;5035199;28;20492;-77
2021/07/27 11:15:10;;;;;;;6.40;5.60;;;27.50;46.80;;;;;;5018096;28;20965;-77
2021/07/27 11:17:47;;;;;;;5.87;5.27;;;27.50;48.10;;;;;;5035924;28;20477;-77
2021/07/27 11:20:15;;;;;;;7.87;6.20;;;27.60;45.50;;;;;;5021065;28;20420;-77
2021/07/27 11:22:44;;;;;;;6.77;4.70;;;27.60;47.00;;;;;;5038019;28;20526;-77
2021/07/27 11:25:11;;;;;;;7.07;5.50;;;27.50;45.90;;;;;;5051308;28;20451;-76
2021/07/27 11:27:37;;;;;;;6.90;5.23;;;27.60;47.10;;;;;;5039059;28;20397;-76
2021/07/27 11:30:09;;;;;;;6.80;6.10;;;27.60;45.70;;;;;;5044431;28;20459;-77
2021/07/27 11:32:51;;;;;;;5.30;4.80;;;27.60;46.00;;;;;;5035970;28;20535;-77
2021/07/27 11:35:25;;;;;;;8.10;5.77;;;27.60;46.40;;;;;;5036671;28;20479;-77
2021/07/27 11:38:02;;;;;;;16.33;13.93;;;27.60;46.70;;;;;;5017324;28;20423;-77
2021/07/27 11:40:29;;;;;;;5.70;5.10;;;27.50;47.60;;;;;;5036708;28;20467;-77
2021/07/27 11:43:09;;;;;;;5.60;5.03;;;27.60;48.00;;;;;;5037145;28;20440;-76
2021/07/27 11:45:39;;;;;;;7.77;6.00;;;27.80;47.80;;;;;;5018811;28;20564;-76
2021/07/27 11:48:06;;;;;;;6.23;5.10;;;27.90;47.90;;;;;;5036362;28;20425;-76
2021/07/27 11:50:38;;;;;;;7.43;6.60;;;27.90;47.40;;;;;;5034922;28;20424;-77
2021/07/27 11:53:05;;;;;;;9.27;6.50;;;27.80;47.20;;;;;;5030597;23;20492;-78
2021/07/27 11:55:33;;;;;;;7.50;6.30;;;27.60;47.50;;;;;;5022819;28;20487;-78
2021/07/27 11:57:59;;;;;;;7.70;5.50;;;27.60;47.60;;;;;;5038401;28;20456;-79
2021/07/27 12:00:26;;;;;;;7.80;5.50;;;27.70;47.90;;;;;;5021914;28;20420;-79
2021/07/27 12:02:52;;;;;;;6.53;5.00;;;27.70;47.20;;;;;;5031660;28;20474;-78
2021/07/27 12:05:18;;;;;;;8.90;6.10;;;27.60;47.00;;;;;;4998152;28;20451;-79
2021/07/27 12:07:46;;;;;;;6.67;5.97;;;27.40;46.20;;;;;;4982795;28;20422;-77
2021/07/27 12:10:13;;;;;;;5.93;5.33;;;27.10;46.90;;;;;;4999551;28;20223;-78
2021/07/27 12:12:39;;;;;;;7.97;5.63;;;27.10;48.10;;;;;;4998667;28;20403;-78
2021/07/27 12:15:08;;;;;;;8.60;4.90;;;27.00;47.80;;;;;;5000486;28;20381;-80
2021/07/27 12:17:34;;;;;;;6.00;5.40;;;27.10;48.30;;;;;;4982205;28;20307;-79
2021/07/27 12:20:00;;;;;;;6.63;5.33;;;27.30;48.60;;;;;;4981897;28;20438;-77
2021/07/27 12:22:25;;;;;;;11.13;5.33;;;27.50;48.80;;;;;;4964743;28;20168;-76
2021/07/27 12:24:51;;;;;;;6.93;5.80;;;27.70;47.30;;;;;;4997817;28;20692;-79
2021/07/27 12:27:17;;;;;;;7.40;5.30;;;27.70;46.60;;;;;;4998363;28;20191;-79
2021/07/27 12:29:43;;;;;;;8.80;7.50;;;27.70;46.60;;;;;;4998161;28;20164;-79
2021/07/27 12:32:08;;;;;;;11.07;5.27;;;27.80;46.80;;;;;;4981441;28;20631;-79
2021/07/27 12:34:34;;;;;;;5.90;4.50;;;27.80;45.70;;;;;;4999094;28;20283;-79
2021/07/27 12:37:00;;;;;;;6.70;4.80;;;27.60;46.30;;;;;;5006555;28;20267;-79
2021/07/27 12:39:26;;;;;;;6.37;5.10;;;27.60;46.00;;;;;;4994243;28;20222;-78
2021/07/27 12:41:52;;;;;;;8.03;5.60;;;27.70;46.10;;;;;;4990600;28;20587;-80
2021/07/27 12:44:19;;;;;;;7.30;5.40;;;27.80;46.30;;;;;;5005666;28;20256;-77
2021/07/27 12:46:45;;;;;;;7.30;4.70;;;27.90;46.30;;;;;;4988638;28;20427;-77
2021/07/27 12:49:16;;;;;;;6.00;4.50;;;27.90;46.80;;;;;;4963375;28;20419;-78
2021/07/27 12:51:41;;;;;;;5.73;5.03;;;28.00;46.70;;;;;;4980338;28;20788;-76
2021/07/27 12:54:07;;;;;;;5.70;5.10;;;28.00;46.40;;;;;;4997011;28;20443;-79
2021/07/27 12:56:34;;;;;;;7.80;5.73;;;28.00;46.10;;;;;;4999248;28;20290;-78
2021/07/27 12:59:00;;;;;;;9.17;6.90;;;28.00;46.70;;;;;;4981245;28;20887;-77
2021/07/27 13:01:26;;;;;;;7.80;4.80;;;28.10;45.90;;;;;;4992419;28;20431;-76
2021/07/27 13:03:51;;;;;;;7.77;4.77;;;28.10;45.40;;;;;;4998699;28;20685;-79
2021/07/27 13:06:17;;;;;;;5.40;4.80;;;28.20;45.90;;;;;;4978872;28;20172;-77
2021/07/27 13:08:43;;;;;;;6.20;4.97;;;28.40;45.30;;;;;;4994476;28;20510;-77
2021/07/27 13:11:09;;;;;;;6.33;5.07;;;28.50;44.90;;;;;;4978281;28;20183;-78
2021/07/27 13:13:35;;;;;;;5.93;4.60;;;28.50;45.40;;;;;;4978364;28;20656;-78
2021/07/27 13:16:00;;;;;;;6.40;5.30;;;28.50;45.30;;;;;;4995613;28;20489;-77